sensor_id;sensor_type;location;lat;lon;timestamp;temperature;humidity
16198;DHT22;8206;51.440;6.914;2023-06-04T00:02:23;12.50;99.90
16198;DHT22;8206;51.440;6.914;2023-06-04T00:04:50;12.50;99.90
16198;DHT22;8206;51.440;6.914;2023-06-04T00:07:18;12.50;99.90
16198;DHT22;8206;51.440;6.914;2023-06-04T00:09:45;12.50;99.90
16198;DHT22;8206;51.440;6.914;2023-06-04T00:12:12;12.40;99.90
16198;DHT22;8206;51.440;6.914;2023-06-04T00:14:39;12.40;99.90
16198;DHT22;8206;51.440;6.914;2023-06-04T00:17:07;12.40;99.90
16198;DHT22;8206;51.440;6.914;2023-06-04T00:19:34;12.40;99.90
16198;DHT22;8206;51.440;6.914;2023-06-04T00:22:01;12.30;99.90
16198;DHT22;8206;51.440;6.914;2023-06-04T00:24:29;12.30;99.90
16198;DHT22;8206;51.440;6.914;2023-06-04T00:26:56;12.20;99.90
16198;DHT22;8206;51.440;6.914;2023-06-04T00:29:22;12.20;99.90
16198;DHT22;8206;51.440;6.914;2023-06-04T00:31:49;12.10;99.90
16198;DHT22;8206;51.440;6.914;2023-06-04T00:34:17;12.10;99.90
16198;DHT22;8206;51.440;6.914;2023-06-04T00:36:43;12.10;99.90
16198;DHT22;8206;51.440;6.914;2023-06-04T00:39:10;12.10;99.90
16198;DHT22;8206;51.440;6.914;2023-06-04T00:41:38;12.10;99.90
16198;DHT22;8206;51.440;6.914;2023-06-04T00:44:05;12.10;99.90
16198;DHT22;8206;51.440;6.914;2023-06-04T00:46:32;12.00;99.90
16198;DHT22;8206;51.440;6.914;2023-06-04T00:49:01;12.00;99.90
16198;DHT22;8206;51.440;6.914;2023-06-04T00:51:30;12.00;99.90
16198;DHT22;8206;51.440;6.914;2023-06-04T00:53:58;12.00;99.90
16198;DHT22;8206;51.440;6.914;2023-06-04T00:56:27;11.90;99.90
16198;DHT22;8206;51.440;6.914;2023-06-04T00:58:55;11.90;99.90
16198;DHT22;8206;51.440;6.914;2023-06-04T01:01:28;11.90;99.90
16198;DHT22;8206;51.440;6.914;2023-06-04T01:04:00;11.90;99.90
16198;DHT22;8206;51.440;6.914;2023-06-04T01:06:33;11.80;99.90
16198;DHT22;8206;51.440;6.914;2023-06-04T01:09:02;11.80;99.90
16198;DHT22;8206;51.440;6.914;2023-06-04T01:11:33;11.80;99.90
16198;DHT22;8206;51.440;6.914;2023-06-04T01:14:02;11.70;99.90
16198;DHT22;8206;51.440;6.914;2023-06-04T01:16:34;11.70;99.90
16198;DHT22;8206;51.440;6.914;2023-06-04T01:19:11;11.60;99.90
16198;DHT22;8206;51.440;6.914;2023-06-04T01:21:47;11.60;99.90
16198;DHT22;8206;51.440;6.914;2023-06-04T01:24:17;11.60;99.90
16198;DHT22;8206;51.440;6.914;2023-06-04T01:26:48;11.50;99.90
16198;DHT22;8206;51.440;6.914;2023-06-04T01:29:18;11.60;99.90
16198;DHT22;8206;51.440;6.914;2023-06-04T01:31:45;11.50;99.90
16198;DHT22;8206;51.440;6.914;2023-06-04T01:34:11;11.50;99.90
16198;DHT22;8206;51.440;6.914;2023-06-04T01:36:38;11.50;99.90
16198;DHT22;8206;51.440;6.914;2023-06-04T01:39:05;11.50;99.90
16198;DHT22;8206;51.440;6.914;2023-06-04T01:41:31;11.50;99.90
16198;DHT22;8206;51.440;6.914;2023-06-04T01:43:58;11.40;99.90
16198;DHT22;8206;51.440;6.914;2023-06-04T01:46:26;11.40;99.90
16198;DHT22;8206;51.440;6.914;2023-06-04T01:48:53;11.30;99.90
16198;DHT22;8206;51.440;6.914;2023-06-04T01:51:19;11.30;99.90
16198;DHT22;8206;51.440;6.914;2023-06-04T01:53:46;11.30;99.90
16198;DHT22;8206;51.440;6.914;2023-06-04T01:56:13;11.20;99.90
16198;DHT22;8206;51.440;6.914;2023-06-04T01:58:41;11.20;99.90
16198;DHT22;8206;51.440;6.914;2023-06-04T02:01:08;11.20;99.90
16198;DHT22;8206;51.440;6.914;2023-06-04T02:03:36;11.10;99.90
16198;DHT22;8206;51.440;6.914;2023-06-04T02:06:04;11.10;99.90
16198;DHT22;8206;51.440;6.914;2023-06-04T02:08:32;11.10;99.90
16198;DHT22;8206;51.440;6.914;2023-06-04T02:10:59;11.20;99.90
16198;DHT22;8206;51.440;6.914;2023-06-04T02:13:26;11.10;99.90
16198;DHT22;8206;51.440;6.914;2023-06-04T02:15:53;11.10;99.90
16198;DHT22;8206;51.440;6.914;2023-06-04T02:18:20;11.10;99.90
16198;DHT22;8206;51.440;6.914;2023-06-04T02:20:50;11.00;99.90
16198;DHT22;8206;51.440;6.914;2023-06-04T02:23:18;11.00;99.90
16198;DHT22;8206;51.440;6.914;2023-06-04T02:25:45;10.90;99.90
16198;DHT22;8206;51.440;6.914;2023-06-04T02:28:13;11.00;99.90
16198;DHT22;8206;51.440;6.914;2023-06-04T02:30:40;10.90;99.90
16198;DHT22;8206;51.440;6.914;2023-06-04T02:33:07;10.90;99.90
16198;DHT22;8206;51.440;6.914;2023-06-04T02:35:35;10.90;99.90
16198;DHT22;8206;51.440;6.914;2023-06-04T02:38:04;10.90;99.90
16198;DHT22;8206;51.440;6.914;2023-06-04T02:40:31;10.90;99.90
16198;DHT22;8206;51.440;6.914;2023-06-04T02:42:58;10.90;99.90
16198;DHT22;8206;51.440;6.914;2023-06-04T02:45:24;10.90;99.90
16198;DHT22;8206;51.440;6.914;2023-06-04T02:47:51;10.90;99.90
16198;DHT22;8206;51.440;6.914;2023-06-04T02:50:18;10.90;99.90
16198;DHT22;8206;51.440;6.914;2023-06-04T02:52:45;10.80;99.90
16198;DHT22;8206;51.440;6.914;2023-06-04T02:55:13;10.80;99.90
16198;DHT22;8206;51.440;6.914;2023-06-04T02:57:40;10.70;99.90
16198;DHT22;8206;51.440;6.914;2023-06-04T03:00:08;10.80;99.90
16198;DHT22;8206;51.440;6.914;2023-06-04T03:02:39;10.70;99.90
16198;DHT22;8206;51.440;6.914;2023-06-04T03:05:07;10.70;99.90
16198;DHT22;8206;51.440;6.914;2023-06-04T03:07:34;10.60;99.90
16198;DHT22;8206;51.440;6.914;2023-06-04T03:10:01;10.60;99.90
16198;DHT22;8206;51.440;6.914;2023-06-04T03:12:29;10.60;99.90
16198;DHT22;8206;51.440;6.914;2023-06-04T03:14:56;10.60;99.90
16198;DHT22;8206;51.440;6.914;2023-06-04T03:17:23;10.60;99.90
16198;DHT22;8206;51.440;6.914;2023-06-04T03:19:50;10.60;99.90
16198;DHT22;8206;51.440;6.914;2023-06-04T03:22:16;10.60;99.90
16198;DHT22;8206;51.440;6.914;2023-06-04T03:24:43;10.60;99.90
16198;DHT22;8206;51.440;6.914;2023-06-04T03:27:10;10.60;99.90
16198;DHT22;8206;51.440;6.914;2023-06-04T03:29:38;10.60;99.90
16198;DHT22;8206;51.440;6.914;2023-06-04T03:32:06;10.70;99.90
16198;DHT22;8206;51.440;6.914;2023-06-04T03:34:33;10.70;99.90
16198;DHT22;8206;51.440;6.914;2023-06-04T03:37:00;10.70;99.90
16198;DHT22;8206;51.440;6.914;2023-06-04T03:39:26;10.70;99.90
16198;DHT22;8206;51.440;6.914;2023-06-04T03:41:53;10.70;99.90
16198;DHT22;8206;51.440;6.914;2023-06-04T03:44:20;10.70;99.90
16198;DHT22;8206;51.440;6.914;2023-06-04T03:46:48;10.70;99.90
16198;DHT22;8206;51.440;6.914;2023-06-04T03:49:15;10.80;99.90
16198;DHT22;8206;51.440;6.914;2023-06-04T03:51:43;10.80;99.90
16198;DHT22;8206;51.440;6.914;2023-06-04T03:54:10;10.80;99.90
16198;DHT22;8206;51.440;6.914;2023-06-04T03:56:37;11.00;1.00
16198;DHT22;8206;51.440;6.914;2023-06-04T03:59:03;11.50;99.90
16198;DHT22;8206;51.440;6.914;2023-06-04T04:01:30;11.90;99.90
16198;DHT22;8206;51.440;6.914;2023-06-04T04:03:58;12.30;99.90
16198;DHT22;8206;51.440;6.914;2023-06-04T04:06:25;12.60;99.90
16198;DHT22;8206;51.440;6.914;2023-06-04T04:08:51;12.90;99.90
16198;DHT22;8206;51.440;6.914;2023-06-04T04:11:18;13.20;99.90
16198;DHT22;8206;51.440;6.914;2023-06-04T04:13:45;13.40;99.90
16198;DHT22;8206;51.440;6.914;2023-06-04T04:16:12;13.70;99.90
16198;DHT22;8206;51.440;6.914;2023-06-04T04:18:41;13.90;99.90
16198;DHT22;8206;51.440;6.914;2023-06-04T04:21:09;14.20;99.90
16198;DHT22;8206;51.440;6.914;2023-06-04T04:23:38;14.30;99.90
16198;DHT22;8206;51.440;6.914;2023-06-04T04:26:05;14.60;99.90
16198;DHT22;8206;51.440;6.914;2023-06-04T04:28:32;14.80;99.90
16198;DHT22;8206;51.440;6.914;2023-06-04T04:30:59;14.90;99.90
16198;DHT22;8206;51.440;6.914;2023-06-04T04:33:27;15.00;99.90
16198;DHT22;8206;51.440;6.914;2023-06-04T04:35:58;15.10;99.90
16198;DHT22;8206;51.440;6.914;2023-06-04T04:38:26;15.40;99.90
16198;DHT22;8206;51.440;6.914;2023-06-04T04:40:54;15.90;99.90
16198;DHT22;8206;51.440;6.914;2023-06-04T04:43:29;16.00;99.90
16198;DHT22;8206;51.440;6.914;2023-06-04T04:45:56;16.00;99.90
16198;DHT22;8206;51.440;6.914;2023-06-04T04:48:23;16.20;99.90
16198;DHT22;8206;51.440;6.914;2023-06-04T04:50:50;16.30;99.90
16198;DHT22;8206;51.440;6.914;2023-06-04T04:53:16;16.60;99.90
16198;DHT22;8206;51.440;6.914;2023-06-04T04:55:44;16.60;99.90
16198;DHT22;8206;51.440;6.914;2023-06-04T04:58:11;16.80;99.90
16198;DHT22;8206;51.440;6.914;2023-06-04T05:00:38;17.20;99.90
16198;DHT22;8206;51.440;6.914;2023-06-04T05:03:05;17.40;99.90
16198;DHT22;8206;51.440;6.914;2023-06-04T05:05:32;17.70;99.90
16198;DHT22;8206;51.440;6.914;2023-06-04T05:07:59;17.90;99.90
16198;DHT22;8206;51.440;6.914;2023-06-04T05:10:25;18.30;99.90
16198;DHT22;8206;51.440;6.914;2023-06-04T05:12:54;18.40;99.90
16198;DHT22;8206;51.440;6.914;2023-06-04T05:15:21;18.40;99.90
16198;DHT22;8206;51.440;6.914;2023-06-04T05:17:49;18.50;99.90
16198;DHT22;8206;51.440;6.914;2023-06-04T05:20:17;18.80;99.90
16198;DHT22;8206;51.440;6.914;2023-06-04T05:22:44;18.90;99.90
16198;DHT22;8206;51.440;6.914;2023-06-04T05:25:11;19.20;99.90
16198;DHT22;8206;51.440;6.914;2023-06-04T05:27:40;19.40;99.90
16198;DHT22;8206;51.440;6.914;2023-06-04T05:30:09;19.70;99.90
16198;DHT22;8206;51.440;6.914;2023-06-04T05:32:36;20.10;99.90
16198;DHT22;8206;51.440;6.914;2023-06-04T05:35:07;20.00;99.90
16198;DHT22;8206;51.440;6.914;2023-06-04T05:37:35;20.40;99.90
16198;DHT22;8206;51.440;6.914;2023-06-04T05:40:04;21.00;99.90
16198;DHT22;8206;51.440;6.914;2023-06-04T05:42:32;21.20;99.90
16198;DHT22;8206;51.440;6.914;2023-06-04T05:44:59;21.50;99.90
16198;DHT22;8206;51.440;6.914;2023-06-04T05:47:27;21.40;99.90
16198;DHT22;8206;51.440;6.914;2023-06-04T05:49:55;21.00;99.90
16198;DHT22;8206;51.440;6.914;2023-06-04T05:52:22;20.90;99.90
16198;DHT22;8206;51.440;6.914;2023-06-04T05:54:48;21.00;99.90
16198;DHT22;8206;51.440;6.914;2023-06-04T05:57:15;21.60;99.90
16198;DHT22;8206;51.440;6.914;2023-06-04T05:59:42;21.50;99.90
16198;DHT22;8206;51.440;6.914;2023-06-04T06:02:08;21.40;99.90
16198;DHT22;8206;51.440;6.914;2023-06-04T06:04:36;21.40;99.90
16198;DHT22;8206;51.440;6.914;2023-06-04T06:07:03;21.40;99.90
16198;DHT22;8206;51.440;6.914;2023-06-04T06:09:30;21.60;99.90
16198;DHT22;8206;51.440;6.914;2023-06-04T06:11:57;22.20;99.90
16198;DHT22;8206;51.440;6.914;2023-06-04T06:14:23;22.50;99.90
16198;DHT22;8206;51.440;6.914;2023-06-04T06:16:50;22.30;99.90
16198;DHT22;8206;51.440;6.914;2023-06-04T06:19:18;22.70;99.90
16198;DHT22;8206;51.440;6.914;2023-06-04T06:21:46;23.30;99.90
16198;DHT22;8206;51.440;6.914;2023-06-04T06:24:13;23.70;99.90
16198;DHT22;8206;51.440;6.914;2023-06-04T06:26:39;23.80;99.90
16198;DHT22;8206;51.440;6.914;2023-06-04T06:29:06;24.10;99.90
16198;DHT22;8206;51.440;6.914;2023-06-04T06:31:33;24.20;99.90
16198;DHT22;8206;51.440;6.914;2023-06-04T06:33:59;24.40;99.90
16198;DHT22;8206;51.440;6.914;2023-06-04T06:36:26;24.30;99.90
16198;DHT22;8206;51.440;6.914;2023-06-04T06:38:55;24.30;99.90
16198;DHT22;8206;51.440;6.914;2023-06-04T06:41:22;24.60;99.90
16198;DHT22;8206;51.440;6.914;2023-06-04T06:43:48;24.10;99.90
16198;DHT22;8206;51.440;6.914;2023-06-04T06:46:16;24.00;99.90
16198;DHT22;8206;51.440;6.914;2023-06-04T06:48:42;24.80;99.90
16198;DHT22;8206;51.440;6.914;2023-06-04T06:51:10;25.00;99.90
16198;DHT22;8206;51.440;6.914;2023-06-04T06:53:37;24.90;99.90
16198;DHT22;8206;51.440;6.914;2023-06-04T06:56:06;24.60;99.90
16198;DHT22;8206;51.440;6.914;2023-06-04T06:58:33;24.80;99.90
16198;DHT22;8206;51.440;6.914;2023-06-04T07:01:00;25.20;99.90
16198;DHT22;8206;51.440;6.914;2023-06-04T07:03:27;25.70;99.90
16198;DHT22;8206;51.440;6.914;2023-06-04T07:05:54;25.90;99.90
16198;DHT22;8206;51.440;6.914;2023-06-04T07:08:20;26.10;99.90
16198;DHT22;8206;51.440;6.914;2023-06-04T07:10:47;26.60;99.90
16198;DHT22;8206;51.440;6.914;2023-06-04T07:13:15;26.30;99.90
16198;DHT22;8206;51.440;6.914;2023-06-04T07:15:42;25.50;99.90
16198;DHT22;8206;51.440;6.914;2023-06-04T07:18:09;24.90;99.90
16198;DHT22;8206;51.440;6.914;2023-06-04T07:20:35;24.10;99.90
16198;DHT22;8206;51.440;6.914;2023-06-04T07:23:02;23.10;99.90
16198;DHT22;8206;51.440;6.914;2023-06-04T07:25:29;22.50;99.90
16198;DHT22;8206;51.440;6.914;2023-06-04T07:27:55;22.10;99.90
16198;DHT22;8206;51.440;6.914;2023-06-04T07:30:24;21.50;99.90
16198;DHT22;8206;51.440;6.914;2023-06-04T07:32:51;21.10;99.90
16198;DHT22;8206;51.440;6.914;2023-06-04T07:35:18;20.70;99.90
16198;DHT22;8206;51.440;6.914;2023-06-04T07:37:44;20.40;99.90
16198;DHT22;8206;51.440;6.914;2023-06-04T07:40:13;20.10;99.90
16198;DHT22;8206;51.440;6.914;2023-06-04T07:42:40;19.90;99.90
16198;DHT22;8206;51.440;6.914;2023-06-04T07:45:08;19.80;99.90
16198;DHT22;8206;51.440;6.914;2023-06-04T07:47:37;19.60;99.90
16198;DHT22;8206;51.440;6.914;2023-06-04T07:50:04;19.70;99.90
16198;DHT22;8206;51.440;6.914;2023-06-04T07:52:31;19.60;99.90
16198;DHT22;8206;51.440;6.914;2023-06-04T07:54:58;19.40;99.90
16198;DHT22;8206;51.440;6.914;2023-06-04T07:57:25;19.50;99.90
16198;DHT22;8206;51.440;6.914;2023-06-04T07:59:52;19.50;99.90
16198;DHT22;8206;51.440;6.914;2023-06-04T08:02:19;19.50;99.90
16198;DHT22;8206;51.440;6.914;2023-06-04T08:04:47;19.50;99.90
16198;DHT22;8206;51.440;6.914;2023-06-04T08:07:13;19.60;99.90
16198;DHT22;8206;51.440;6.914;2023-06-04T08:09:40;19.70;99.90
16198;DHT22;8206;51.440;6.914;2023-06-04T08:12:07;19.90;99.90
16198;DHT22;8206;51.440;6.914;2023-06-04T08:14:33;20.10;99.90
16198;DHT22;8206;51.440;6.914;2023-06-04T08:17:00;20.10;99.90
16198;DHT22;8206;51.440;6.914;2023-06-04T08:19:27;20.20;99.90
16198;DHT22;8206;51.440;6.914;2023-06-04T08:21:55;20.40;99.90
16198;DHT22;8206;51.440;6.914;2023-06-04T08:24:22;20.50;99.90
16198;DHT22;8206;51.440;6.914;2023-06-04T08:26:48;20.60;99.90
16198;DHT22;8206;51.440;6.914;2023-06-04T08:29:15;20.70;99.90
16198;DHT22;8206;51.440;6.914;2023-06-04T08:31:42;20.70;99.90
16198;DHT22;8206;51.440;6.914;2023-06-04T08:34:09;20.70;99.90
16198;DHT22;8206;51.440;6.914;2023-06-04T08:36:35;20.80;99.90
16198;DHT22;8206;51.440;6.914;2023-06-04T08:39:03;20.90;99.90
16198;DHT22;8206;51.440;6.914;2023-06-04T08:41:34;21.00;99.90
16198;DHT22;8206;51.440;6.914;2023-06-04T08:44:05;21.00;99.90
16198;DHT22;8206;51.440;6.914;2023-06-04T08:46:32;21.00;99.90
16198;DHT22;8206;51.440;6.914;2023-06-04T08:49:01;21.00;99.90
16198;DHT22;8206;51.440;6.914;2023-06-04T08:51:29;21.10;99.90
16198;DHT22;8206;51.440;6.914;2023-06-04T08:53:59;21.10;99.90
16198;DHT22;8206;51.440;6.914;2023-06-04T08:56:27;21.20;99.90
16198;DHT22;8206;51.440;6.914;2023-06-04T08:59:00;21.20;99.90
16198;DHT22;8206;51.440;6.914;2023-06-04T09:01:27;21.40;99.90
16198;DHT22;8206;51.440;6.914;2023-06-04T09:03:55;21.50;99.90
16198;DHT22;8206;51.440;6.914;2023-06-04T09:06:23;21.50;99.90
16198;DHT22;8206;51.440;6.914;2023-06-04T09:08:51;21.50;99.90
16198;DHT22;8206;51.440;6.914;2023-06-04T09:11:18;21.50;99.90
16198;DHT22;8206;51.440;6.914;2023-06-04T09:13:48;21.50;99.90
16198;DHT22;8206;51.440;6.914;2023-06-04T09:16:16;21.50;99.90
16198;DHT22;8206;51.440;6.914;2023-06-04T09:18:44;21.60;99.90
16198;DHT22;8206;51.440;6.914;2023-06-04T09:21:11;21.60;99.90
16198;DHT22;8206;51.440;6.914;2023-06-04T09:23:44;21.70;99.90
16198;DHT22;8206;51.440;6.914;2023-06-04T09:26:11;21.70;99.90
16198;DHT22;8206;51.440;6.914;2023-06-04T09:28:40;21.80;99.90
16198;DHT22;8206;51.440;6.914;2023-06-04T09:31:09;21.80;99.90
16198;DHT22;8206;51.440;6.914;2023-06-04T09:33:43;21.80;99.90
16198;DHT22;8206;51.440;6.914;2023-06-04T09:36:10;21.90;99.90
16198;DHT22;8206;51.440;6.914;2023-06-04T09:38:37;22.20;99.90
16198;DHT22;8206;51.440;6.914;2023-06-04T09:41:05;22.20;99.90
16198;DHT22;8206;51.440;6.914;2023-06-04T09:43:37;22.20;99.90
16198;DHT22;8206;51.440;6.914;2023-06-04T09:46:15;22.30;99.90
16198;DHT22;8206;51.440;6.914;2023-06-04T09:48:42;22.30;99.90
16198;DHT22;8206;51.440;6.914;2023-06-04T09:51:10;22.50;99.90
16198;DHT22;8206;51.440;6.914;2023-06-04T09:53:38;22.50;99.90
16198;DHT22;8206;51.440;6.914;2023-06-04T09:56:06;22.40;99.90
16198;DHT22;8206;51.440;6.914;2023-06-04T09:58:34;22.20;99.90
16198;DHT22;8206;51.440;6.914;2023-06-04T10:01:02;22.20;99.90
16198;DHT22;8206;51.440;6.914;2023-06-04T10:03:32;22.30;99.90
16198;DHT22;8206;51.440;6.914;2023-06-04T10:06:01;22.20;99.90
16198;DHT22;8206;51.440;6.914;2023-06-04T10:08:29;22.30;99.90
16198;DHT22;8206;51.440;6.914;2023-06-04T10:10:58;22.40;99.90
16198;DHT22;8206;51.440;6.914;2023-06-04T10:13:27;22.40;99.90
16198;DHT22;8206;51.440;6.914;2023-06-04T10:15:56;22.40;99.90
16198;DHT22;8206;51.440;6.914;2023-06-04T10:18:24;22.30;99.90
16198;DHT22;8206;51.440;6.914;2023-06-04T10:20:55;22.20;99.90
16198;DHT22;8206;51.440;6.914;2023-06-04T10:23:22;22.40;99.90
16198;DHT22;8206;51.440;6.914;2023-06-04T10:25:50;22.50;99.90
16198;DHT22;8206;51.440;6.914;2023-06-04T10:28:18;22.60;99.90
16198;DHT22;8206;51.440;6.914;2023-06-04T10:30:46;22.90;99.90
16198;DHT22;8206;51.440;6.914;2023-06-04T10:33:16;22.80;99.90
16198;DHT22;8206;51.440;6.914;2023-06-04T10:35:43;22.80;99.90
16198;DHT22;8206;51.440;6.914;2023-06-04T10:38:13;23.00;99.90
16198;DHT22;8206;51.440;6.914;2023-06-04T10:40:41;23.00;99.90
16198;DHT22;8206;51.440;6.914;2023-06-04T10:43:09;22.90;99.90
16198;DHT22;8206;51.440;6.914;2023-06-04T10:45:36;22.90;99.90
16198;DHT22;8206;51.440;6.914;2023-06-04T10:48:04;22.90;99.90
16198;DHT22;8206;51.440;6.914;2023-06-04T10:50:32;23.10;99.90
16198;DHT22;8206;51.440;6.914;2023-06-04T10:52:59;23.00;99.90
16198;DHT22;8206;51.440;6.914;2023-06-04T10:55:30;23.10;99.90
16198;DHT22;8206;51.440;6.914;2023-06-04T10:57:58;23.20;99.90
16198;DHT22;8206;51.440;6.914;2023-06-04T11:00:34;23.30;99.90
16198;DHT22;8206;51.440;6.914;2023-06-04T11:03:01;23.30;99.90
16198;DHT22;8206;51.440;6.914;2023-06-04T11:05:34;23.20;99.90
16198;DHT22;8206;51.440;6.914;2023-06-04T11:08:01;23.00;99.90
16198;DHT22;8206;51.440;6.914;2023-06-04T11:10:33;23.00;99.90
16198;DHT22;8206;51.440;6.914;2023-06-04T11:13:01;22.90;99.90
16198;DHT22;8206;51.440;6.914;2023-06-04T11:15:38;22.90;99.90
16198;DHT22;8206;51.440;6.914;2023-06-04T11:18:04;22.90;99.90
16198;DHT22;8206;51.440;6.914;2023-06-04T11:20:31;22.90;99.90
16198;DHT22;8206;51.440;6.914;2023-06-04T11:22:58;23.00;99.90
16198;DHT22;8206;51.440;6.914;2023-06-04T11:25:28;23.00;99.90
16198;DHT22;8206;51.440;6.914;2023-06-04T11:27:57;23.10;99.90
16198;DHT22;8206;51.440;6.914;2023-06-04T11:30:24;23.20;99.90
16198;DHT22;8206;51.440;6.914;2023-06-04T11:33:00;23.40;99.90
16198;DHT22;8206;51.440;6.914;2023-06-04T11:35:27;23.40;99.90
16198;DHT22;8206;51.440;6.914;2023-06-04T11:37:54;23.40;99.90
16198;DHT22;8206;51.440;6.914;2023-06-04T11:40:21;23.40;99.90
16198;DHT22;8206;51.440;6.914;2023-06-04T11:42:48;23.40;99.90
16198;DHT22;8206;51.440;6.914;2023-06-04T11:45:18;23.50;99.90
16198;DHT22;8206;51.440;6.914;2023-06-04T11:47:46;23.60;99.90
16198;DHT22;8206;51.440;6.914;2023-06-04T11:50:13;23.40;99.90
16198;DHT22;8206;51.440;6.914;2023-06-04T11:52:40;23.20;99.90
16198;DHT22;8206;51.440;6.914;2023-06-04T11:55:08;23.10;99.90
16198;DHT22;8206;51.440;6.914;2023-06-04T11:57:35;23.20;99.90
16198;DHT22;8206;51.440;6.914;2023-06-04T12:00:03;23.20;99.90
16198;DHT22;8206;51.440;6.914;2023-06-04T12:02:35;23.50;99.90
16198;DHT22;8206;51.440;6.914;2023-06-04T12:05:12;23.60;99.90
16198;DHT22;8206;51.440;6.914;2023-06-04T12:07:39;23.40;99.90
16198;DHT22;8206;51.440;6.914;2023-06-04T12:10:07;23.30;99.90
16198;DHT22;8206;51.440;6.914;2023-06-04T12:12:34;23.40;99.90
16198;DHT22;8206;51.440;6.914;2023-06-04T12:15:01;23.40;99.90
16198;DHT22;8206;51.440;6.914;2023-06-04T12:17:29;23.50;99.90
16198;DHT22;8206;51.440;6.914;2023-06-04T12:19:57;23.60;99.90
16198;DHT22;8206;51.440;6.914;2023-06-04T12:22:24;23.70;99.90
16198;DHT22;8206;51.440;6.914;2023-06-04T12:24:52;23.80;99.90
16198;DHT22;8206;51.440;6.914;2023-06-04T12:27:20;23.80;99.90
16198;DHT22;8206;51.440;6.914;2023-06-04T12:29:54;23.90;99.90
16198;DHT22;8206;51.440;6.914;2023-06-04T12:32:21;24.00;99.90
16198;DHT22;8206;51.440;6.914;2023-06-04T12:34:48;23.90;99.90
16198;DHT22;8206;51.440;6.914;2023-06-04T12:37:16;23.80;99.90
16198;DHT22;8206;51.440;6.914;2023-06-04T12:39:43;23.70;99.90
16198;DHT22;8206;51.440;6.914;2023-06-04T12:42:09;23.80;99.90
16198;DHT22;8206;51.440;6.914;2023-06-04T12:44:37;23.90;99.90
16198;DHT22;8206;51.440;6.914;2023-06-04T12:47:05;23.90;99.90
16198;DHT22;8206;51.440;6.914;2023-06-04T12:49:31;23.80;99.90
16198;DHT22;8206;51.440;6.914;2023-06-04T12:51:58;23.80;99.90
16198;DHT22;8206;51.440;6.914;2023-06-04T12:54:26;23.80;99.90
16198;DHT22;8206;51.440;6.914;2023-06-04T12:56:53;23.90;99.90
16198;DHT22;8206;51.440;6.914;2023-06-04T12:59:21;23.90;99.90
16198;DHT22;8206;51.440;6.914;2023-06-04T13:01:49;23.80;99.90
16198;DHT22;8206;51.440;6.914;2023-06-04T13:04:15;23.70;99.90
16198;DHT22;8206;51.440;6.914;2023-06-04T13:06:42;23.60;99.90
16198;DHT22;8206;51.440;6.914;2023-06-04T13:09:11;23.80;99.90
16198;DHT22;8206;51.440;6.914;2023-06-04T13:11:40;24.00;99.90
16198;DHT22;8206;51.440;6.914;2023-06-04T13:14:08;24.00;99.90
16198;DHT22;8206;51.440;6.914;2023-06-04T13:16:34;24.00;99.90
16198;DHT22;8206;51.440;6.914;2023-06-04T13:19:02;23.90;99.90
16198;DHT22;8206;51.440;6.914;2023-06-04T13:21:29;23.80;99.90
16198;DHT22;8206;51.440;6.914;2023-06-04T13:23:55;23.70;99.90
16198;DHT22;8206;51.440;6.914;2023-06-04T13:26:22;23.80;99.90
16198;DHT22;8206;51.440;6.914;2023-06-04T13:28:50;23.80;99.90
16198;DHT22;8206;51.440;6.914;2023-06-04T13:31:17;23.70;99.90
16198;DHT22;8206;51.440;6.914;2023-06-04T13:33:44;23.80;99.90
16198;DHT22;8206;51.440;6.914;2023-06-04T13:36:10;23.70;99.90
16198;DHT22;8206;51.440;6.914;2023-06-04T13:38:37;23.80;99.90
16198;DHT22;8206;51.440;6.914;2023-06-04T13:41:04;23.80;99.90
16198;DHT22;8206;51.440;6.914;2023-06-04T13:43:30;23.80;99.90
16198;DHT22;8206;51.440;6.914;2023-06-04T13:45:58;23.80;99.90
16198;DHT22;8206;51.440;6.914;2023-06-04T13:48:25;23.90;99.90
16198;DHT22;8206;51.440;6.914;2023-06-04T13:50:52;23.70;99.90
16198;DHT22;8206;51.440;6.914;2023-06-04T13:53:18;23.50;99.90
16198;DHT22;8206;51.440;6.914;2023-06-04T13:55:45;23.60;99.90
16198;DHT22;8206;51.440;6.914;2023-06-04T13:58:12;23.60;99.90
16198;DHT22;8206;51.440;6.914;2023-06-04T14:00:40;23.80;99.90
16198;DHT22;8206;51.440;6.914;2023-06-04T14:03:08;23.80;99.90
16198;DHT22;8206;51.440;6.914;2023-06-04T14:05:34;23.90;99.90
16198;DHT22;8206;51.440;6.914;2023-06-04T14:08:01;23.80;99.90
16198;DHT22;8206;51.440;6.914;2023-06-04T14:10:28;23.90;99.90
16198;DHT22;8206;51.440;6.914;2023-06-04T14:12:54;23.90;99.90
16198;DHT22;8206;51.440;6.914;2023-06-04T14:15:21;23.90;99.90
16198;DHT22;8206;51.440;6.914;2023-06-04T14:17:48;23.80;99.90
16198;DHT22;8206;51.440;6.914;2023-06-04T14:20:16;23.90;99.90
16198;DHT22;8206;51.440;6.914;2023-06-04T14:22:43;24.00;99.90
16198;DHT22;8206;51.440;6.914;2023-06-04T14:25:09;24.00;99.90
16198;DHT22;8206;51.440;6.914;2023-06-04T14:27:36;24.00;99.90
16198;DHT22;8206;51.440;6.914;2023-06-04T14:30:04;24.00;99.90
16198;DHT22;8206;51.440;6.914;2023-06-04T14:32:31;23.90;99.90
16198;DHT22;8206;51.440;6.914;2023-06-04T14:34:59;23.90;99.90
16198;DHT22;8206;51.440;6.914;2023-06-04T14:37:27;23.90;99.90
16198;DHT22;8206;51.440;6.914;2023-06-04T14:39:53;24.00;99.90
16198;DHT22;8206;51.440;6.914;2023-06-04T14:42:20;24.10;99.90
16198;DHT22;8206;51.440;6.914;2023-06-04T14:44:47;24.20;99.90
16198;DHT22;8206;51.440;6.914;2023-06-04T14:47:14;24.30;99.90
16198;DHT22;8206;51.440;6.914;2023-06-04T14:49:41;24.30;99.90
16198;DHT22;8206;51.440;6.914;2023-06-04T14:52:07;24.20;99.90
16198;DHT22;8206;51.440;6.914;2023-06-04T14:54:35;24.10;99.90
16198;DHT22;8206;51.440;6.914;2023-06-04T14:57:02;24.00;99.90
16198;DHT22;8206;51.440;6.914;2023-06-04T14:59:29;24.20;99.90
16198;DHT22;8206;51.440;6.914;2023-06-04T15:01:56;24.30;99.90
16198;DHT22;8206;51.440;6.914;2023-06-04T15:04:23;24.30;99.90
16198;DHT22;8206;51.440;6.914;2023-06-04T15:06:50;24.20;99.90
16198;DHT22;8206;51.440;6.914;2023-06-04T15:09:16;24.00;99.90
16198;DHT22;8206;51.440;6.914;2023-06-04T15:11:44;24.10;99.90
16198;DHT22;8206;51.440;6.914;2023-06-04T15:14:11;24.10;99.90
16198;DHT22;8206;51.440;6.914;2023-06-04T15:16:37;24.20;99.90
16198;DHT22;8206;51.440;6.914;2023-06-04T15:19:04;24.10;99.90
16198;DHT22;8206;51.440;6.914;2023-06-04T15:21:31;24.10;99.90
16198;DHT22;8206;51.440;6.914;2023-06-04T15:23:57;24.10;99.90
16198;DHT22;8206;51.440;6.914;2023-06-04T15:26:24;24.10;99.90
16198;DHT22;8206;51.440;6.914;2023-06-04T15:28:53;24.20;99.90
16198;DHT22;8206;51.440;6.914;2023-06-04T15:31:21;24.30;99.90
16198;DHT22;8206;51.440;6.914;2023-06-04T15:33:48;24.30;99.90
16198;DHT22;8206;51.440;6.914;2023-06-04T15:36:14;24.10;99.90
16198;DHT22;8206;51.440;6.914;2023-06-04T15:38:41;24.00;99.90
16198;DHT22;8206;51.440;6.914;2023-06-04T15:41:08;24.00;99.90
16198;DHT22;8206;51.440;6.914;2023-06-04T15:43:34;24.00;99.90
16198;DHT22;8206;51.440;6.914;2023-06-04T15:46:02;24.00;99.90
16198;DHT22;8206;51.440;6.914;2023-06-04T15:48:29;24.00;99.90